首页
METAR-TAF:

METAR-TAF

机场 :

富蘭克林縣, 佛蒙特州, 美国

纬度: 44-56-25N, 经度: 073-05-51W, 海拔: 69米

当前天气观测

该预报发布于15分钟前的07:55 UTC
风速10节,风向,有时为24节阵风,在南转南东南转西南之间变化
温度 0°C
湿度 40%
气压 1030 hPa
能見度: 16.1公里
阴天层高于10000英尺

METAR: KFSO 130755Z AUTO 18010G24KT 150V210 10SM OVC100 00/M12 A3041 RMK AO2 T00021116

时间: 03:10 (08:10 UTC)


TAF: 丢失

超过4000个机场的气象观测和天气预报(METAR&TAF报告)。

可查询的气象台以黄色和红色小点在地图上表示。

将鼠标移到小点上方,可查看气象台名称。

然后点击查看天气观测和预报。

如需切换地图:点击带黑十字的绿色按钮放大地图;点击带横线的绿色按钮缩小地图;或者点击绿色箭头查看邻近地区的地图。


METAR-TAF: